Carnival Valor — H3VR — position and weather

sailwx.info

Track history (hours):
 
Tides and Currents Weather Stations Pressure Air Temp Water Temp Dewpoint Dewpoint Depression Visibility Wind Speed Wind Dir Waves Ship Positions

Carnival Valor

Last reported at 2015-Aug-02 06:25 UTC. Time now 2015-Aug-03 08:43 UTC.
Position N 26°10' W 078°41'.

Type: Ship. MMSI: 354298000.

Date/timePositionNaut miles runAvg speedWind from/ knotsBaromVisibWave heightAir tempDewpointWater temp
2015-Aug-02 06:25N 26°10' W 078°41'4019.2
2015-Aug-02 04:19N 26°36' W 079°16'1418.9
2015-Aug-02 03:33N 26°48' W 079°24'1717.2
2015-Aug-02 02:33N 27°03' W 079°34'98 6.0
2015-Aug-01 10:07N 28°25' W 080°35'8518.7
2015-Aug-01 05:33N 27°10' W 079°48'2222.1
2015-Aug-01 04:33N 26°48' W 079°45'2222.4
2015-Aug-01 03:33N 26°26' W 079°46'2221.9
2015-Aug-01 02:33N 26°04' W 079°46'2221.8
2015-Aug-01 01:33N 25°42' W 079°47'2121.2
2015-Aug-01 00:34N 25°21' W 079°47'2120.7
2015-Jul-31 23:33N 25°01' W 079°54'82320.3
2015-Jul-30 07:00N 17°54' W 067°18'   080 / 171014.010.8 1.028.023.729.0
2015-Jul-27 23:20N 20°25' W 087°03'6 7.8
2015-Jul-27 22:33N 20°29' W 086°59'0 0.0
2015-Jul-27 21:32N 20°29' W 086°59'0 0.0
2015-Jul-27 20:31N 20°29' W 086°59'0 0.0
2015-Jul-27 19:31N 20°29' W 086°59'0 0.0
2015-Jul-27 18:28N 20°29' W 086°59'0 0.0
2015-Jul-27 17:33N 20°29' W 086°59'0 0.0
2015-Jul-27 16:33N 20°29' W 086°59'0 0.0
2015-Jul-27 15:32N 20°29' W 086°59'0 0.0
2015-Jul-27 14:32N 20°29' W 086°59'2 2.3
2015-Jul-27 13:33N 20°31' W 086°59'11817.9
2015-Jul-27 07:00N 21°48' W 085°24'36716.4 140 / 121015.010.8 1.029.023.230.8
2015-Jul-26 08:33N 25°25' W 080°00'1515.5
2015-Jul-26 07:33N 25°40' W 079°59'1515.4
2015-Jul-26 06:33N 25°56' W 079°59'1716.7
2015-Jul-26 05:33N 26°12' W 079°58'1616.4
2015-Jul-26 04:33N 26°29' W 079°57'1615.6
2015-Jul-26 03:33N 26°44' W 079°56'77 3.7
2015-Jul-25 07:00N 28°00' W 079°42'69315.4 230 / 181012.010.8 26.024.630.5
2015-Jul-23 10:00N 21°00' W 069°36'   140 / 181017.0 5.4 1.027.523.028.9
Track history (hours):
 
Tides and Currents Weather Stations Pressure Air Temp Water Temp Dewpoint Dewpoint Depression Visibility Wind Speed Wind Dir Waves Ship Positions

Carnival Valor

Last reported at 2015-Aug-02 06:25 UTC. Time now 2015-Aug-03 08:43 UTC.
Position N 26°10' W 078°41'.

Type: Ship. MMSI: 354298000.

Date/timePositionNaut miles runAvg speedWind from/ knotsBaromVisibWave heightAir tempDewpointWater temp
2015-Aug-02 06:25N 26°10' W 078°41'4019.2
2015-Aug-02 04:19N 26°36' W 079°16'1418.9
2015-Aug-02 03:33N 26°48' W 079°24'1717.2
2015-Aug-02 02:33N 27°03' W 079°34'98 6.0
2015-Aug-01 10:07N 28°25' W 080°35'8518.7
2015-Aug-01 05:33N 27°10' W 079°48'2222.1
2015-Aug-01 04:33N 26°48' W 079°45'2222.4
2015-Aug-01 03:33N 26°26' W 079°46'2221.9
2015-Aug-01 02:33N 26°04' W 079°46'2221.8
2015-Aug-01 01:33N 25°42' W 079°47'2121.2
2015-Aug-01 00:34N 25°21' W 079°47'2120.7
2015-Jul-31 23:33N 25°01' W 079°54'82320.3
2015-Jul-30 07:00N 17°54' W 067°18'   080 / 171014.010.8 1.028.023.729.0
2015-Jul-27 23:20N 20°25' W 087°03'6 7.8
2015-Jul-27 22:33N 20°29' W 086°59'0 0.0
2015-Jul-27 21:32N 20°29' W 086°59'0 0.0
2015-Jul-27 20:31N 20°29' W 086°59'0 0.0
2015-Jul-27 19:31N 20°29' W 086°59'0 0.0
2015-Jul-27 18:28N 20°29' W 086°59'0 0.0
2015-Jul-27 17:33N 20°29' W 086°59'0 0.0
2015-Jul-27 16:33N 20°29' W 086°59'0 0.0
2015-Jul-27 15:32N 20°29' W 086°59'0 0.0
2015-Jul-27 14:32N 20°29' W 086°59'2 2.3
2015-Jul-27 13:33N 20°31' W 086°59'11817.9
2015-Jul-27 07:00N 21°48' W 085°24'36716.4 140 / 121015.010.8 1.029.023.230.8
2015-Jul-26 08:33N 25°25' W 080°00'1515.5
2015-Jul-26 07:33N 25°40' W 079°59'1515.4
2015-Jul-26 06:33N 25°56' W 079°59'1716.7
2015-Jul-26 05:33N 26°12' W 079°58'1616.4
2015-Jul-26 04:33N 26°29' W 079°57'1615.6
2015-Jul-26 03:33N 26°44' W 079°56'77 3.7
2015-Jul-25 07:00N 28°00' W 079°42'69315.4 230 / 181012.010.8 26.024.630.5
2015-Jul-23 10:00N 21°00' W 069°36'   140 / 181017.0 5.4 1.027.523.028.9

Dump ship's entire track history